Time;durP1;ratioP1;P1;durP2;ratioP2;P2;SDS_P1;SDS_P2;PMS_P1;PMS_P2;Temp;Humidity;BMP_temperature;BMP_pressure;BME280_temperature;BME280_humidity;BME280_pressure;Samples;Min_cycle;Max_cycle;Signal;HPM_P1;HPM_P2
2023/07/07 00:02:00;;;;;;;3.17;2.88;;;;;;;;;;4920658;28;20381;-86
2023/07/07 00:04:26;;;;;;;3.03;2.58;;;;;;;;;;4953345;28;20585;-86
2023/07/07 00:06:52;;;;;;;3.33;2.72;;;;;;;;;;4936582;28;20049;-86
2023/07/07 00:09:18;;;;;;;4.82;2.90;;;;;;;;;;4942846;28;20460;-86
2023/07/07 00:11:44;;;;;;;3.65;2.80;;;;;;;;;;4940934;28;20121;-86
2023/07/07 00:14:10;;;;;;;5.13;2.50;;;;;;;;;;4951000;28;20050;-85
2023/07/07 00:16:38;;;;;;;3.08;2.78;;;;;;;;;;4939349;28;20053;-85
2023/07/07 00:19:09;;;;;;;2.65;2.45;;;;;;;;;;4936250;28;20040;-85
2023/07/07 00:21:35;;;;;;;4.25;2.58;;;;;;;;;;4938988;28;20050;-85
2023/07/07 00:24:01;;;;;;;3.08;2.40;;;;;;;;;;4947431;28;20074;-85
2023/07/07 00:26:27;;;;;;;2.75;2.45;;;;;;;;;;4938674;28;20376;-85
2023/07/07 00:28:53;;;;;;;4.38;2.92;;;;;;;;;;4955736;28;20044;-85
2023/07/07 00:31:22;;;;;;;3.13;2.60;;;;;;;;;;4942483;28;20092;-85
2023/07/07 00:33:48;;;;;;;2.72;2.47;;;;;;;;;;4937709;28;20046;-85
2023/07/07 00:36:14;;;;;;;3.38;2.50;;;;;;;;;;4949942;28;20065;-86
2023/07/07 00:38:40;;;;;;;3.00;2.70;;;;;;;;;;4955447;28;20172;-85
2023/07/07 00:41:06;;;;;;;3.47;3.00;;;;;;;;;;4935145;28;20046;-86
2023/07/07 00:43:32;;;;;;;2.63;2.42;;;;;;;;;;4935614;28;20058;-85
2023/07/07 00:45:58;;;;;;;2.85;2.42;;;;;;;;;;4918477;28;20596;-85
2023/07/07 00:48:25;;;;;;;3.53;2.85;;;;;;;;;;4940173;28;20046;-85
2023/07/07 00:51:10;;;;;;;3.25;2.60;;;;;;;;;;4935954;28;21077;-86
2023/07/07 00:53:37;;;;;;;3.42;2.80;;;;;;;;;;4954588;28;20105;-85
2023/07/07 00:56:04;;;;;;;3.30;2.70;;;;;;;;;;4955034;28;20038;-86
2023/07/07 00:58:30;;;;;;;3.57;2.37;;;;;;;;;;4958153;28;20113;-85
2023/07/07 01:00:57;;;;;;;4.05;2.55;;;;;;;;;;4939077;28;20042;-86
2023/07/07 01:03:24;;;;;;;5.30;2.90;;;;;;;;;;4937892;28;20038;-86
2023/07/07 01:05:51;;;;;;;3.03;2.70;;;;;;;;;;4932721;28;20571;-85
2023/07/07 01:08:17;;;;;;;5.05;2.70;;;;;;;;;;4916590;28;20077;-86
2023/07/07 01:10:43;;;;;;;4.38;2.40;;;;;;;;;;4940997;28;20035;-86
2023/07/07 01:13:09;;;;;;;2.50;2.30;;;;;;;;;;4931896;28;20038;-85
2023/07/07 01:15:36;;;;;;;2.97;2.67;;;;;;;;;;4922379;28;20133;-85
2023/07/07 01:18:21;;;;;;;2.60;2.40;;;;;;;;;;4916815;28;20049;-85
2023/07/07 01:21:01;;;;;;;2.60;2.40;;;;;;;;;;4953176;28;20145;-86
2023/07/07 01:23:43;;;;;;;3.42;2.53;;;;;;;;;;4954540;28;20054;-86
2023/07/07 01:26:15;;;;;;;2.78;2.40;;;;;;;;;;4950010;28;20606;-85
2023/07/07 01:28:53;;;;;;;2.80;2.47;;;;;;;;;;4957995;28;20046;-85
2023/07/07 01:31:32;;;;;;;4.40;2.72;;;;;;;;;;4958794;28;20081;-85
2023/07/07 01:33:58;;;;;;;2.72;2.53;;;;;;;;;;4928553;28;20520;-85
2023/07/07 01:36:24;;;;;;;3.15;2.85;;;;;;;;;;4936661;28;20077;-85
2023/07/07 01:38:53;;;;;;;3.72;2.92;;;;;;;;;;4953017;28;20092;-85
2023/07/07 01:41:19;;;;;;;3.13;2.55;;;;;;;;;;4949778;28;20078;-85
2023/07/07 01:43:48;;;;;;;4.68;3.00;;;;;;;;;;4955102;28;20078;-86
2023/07/07 01:46:23;;;;;;;4.18;3.33;;;;;;;;;;4915777;28;20042;-86
2023/07/07 01:48:51;;;;;;;3.72;2.97;;;;;;;;;;4954762;28;20117;-85
2023/07/07 01:51:17;;;;;;;3.97;3.20;;;;;;;;;;4922545;28;20397;-85
2023/07/07 01:53:43;;;;;;;3.15;2.85;;;;;;;;;;4935599;28;20056;-85
2023/07/07 01:56:09;;;;;;;3.42;2.80;;;;;;;;;;4937268;28;20505;-85
2023/07/07 01:58:35;;;;;;;4.45;2.80;;;;;;;;;;4959605;28;20386;-84
2023/07/07 02:01:01;;;;;;;3.25;2.95;;;;;;;;;;4950277;28;20038;-85
2023/07/07 02:03:28;;;;;;;3.95;2.70;;;;;;;;;;4923394;28;20042;-85
2023/07/07 02:05:54;;;;;;;3.83;3.03;;;;;;;;;;4949722;28;20069;-85
2023/07/07 02:08:20;;;;;;;3.40;2.75;;;;;;;;;;4932361;28;20048;-85
2023/07/07 02:10:46;;;;;;;4.05;2.70;;;;;;;;;;4922376;28;20056;-85
2023/07/07 02:13:12;;;;;;;3.35;2.88;;;;;;;;;;4913142;28;20074;-86
2023/07/07 02:15:38;;;;;;;5.50;2.80;;;;;;;;;;4952440;28;20046;-85
2023/07/07 02:18:04;;;;;;;3.75;2.90;;;;;;;;;;4947822;28;20039;-85
2023/07/07 02:20:30;;;;;;;4.32;2.88;;;;;;;;;;4952622;28;20038;-85
2023/07/07 02:22:56;;;;;;;3.22;2.47;;;;;;;;;;4946669;28;20084;-85
2023/07/07 02:25:23;;;;;;;4.00;3.30;;;;;;;;;;4947834;28;20042;-85
2023/07/07 02:27:49;;;;;;;4.28;2.97;;;;;;;;;;4922149;28;20073;-85
2023/07/07 02:30:15;;;;;;;2.75;2.42;;;;;;;;;;4933744;28;20035;-85
2023/07/07 02:32:41;;;;;;;3.05;2.42;;;;;;;;;;4957911;28;20033;-85
2023/07/07 02:35:07;;;;;;;3.20;2.90;;;;;;;;;;4930780;28;20092;-85
2023/07/07 02:37:33;;;;;;;3.88;3.58;;;;;;;;;;4923578;28;20441;-85
2023/07/07 02:39:59;;;;;;;3.17;2.90;;;;;;;;;;4930610;28;20508;-85
2023/07/07 02:42:25;;;;;;;6.00;3.28;;;;;;;;;;4936254;28;20461;-85
2023/07/07 02:44:51;;;;;;;3.65;3.35;;;;;;;;;;4935815;28;20050;-85
2023/07/07 02:47:18;;;;;;;9.00;4.10;;;;;;;;;;4967612;28;20048;-85
2023/07/07 02:49:44;;;;;;;7.03;3.83;;;;;;;;;;4952185;28;20042;-85
2023/07/07 02:52:10;;;;;;;4.88;4.32;;;;;;;;;;4919060;28;20073;-85
2023/07/07 02:54:36;;;;;;;4.93;4.40;;;;;;;;;;4924847;28;20042;-85
2023/07/07 02:57:02;;;;;;;7.72;4.78;;;;;;;;;;4935434;28;20057;-85
2023/07/07 02:59:28;;;;;;;6.75;5.32;;;;;;;;;;4938431;28;20209;-85
2023/07/07 03:01:54;;;;;;;5.53;4.82;;;;;;;;;;4920070;28;20046;-85
2023/07/07 03:04:24;;;;;;;5.97;4.95;;;;;;;;;;4923003;28;20438;-85
2023/07/07 03:06:50;;;;;;;7.47;5.30;;;;;;;;;;4940442;28;20041;-85
2023/07/07 03:09:19;;;;;;;7.13;5.60;;;;;;;;;;4936587;28;20092;-85
2023/07/07 03:11:45;;;;;;;8.93;6.43;;;;;;;;;;4956705;28;20046;-85
2023/07/07 03:14:11;;;;;;;8.77;6.95;;;;;;;;;;4952992;28;21368;-85
2023/07/07 03:16:46;;;;;;;7.55;6.75;;;;;;;;;;4925516;28;20129;-85
2023/07/07 03:19:13;;;;;;;9.98;7.63;;;;;;;;;;4951237;28;20609;-86
2023/07/07 03:21:39;;;;;;;10.50;8.05;;;;;;;;;;4936955;28;20048;-85
2023/07/07 03:24:05;;;;;;;9.77;8.60;;;;;;;;;;4935809;28;20080;-86
2023/07/07 03:26:31;;;;;;;11.05;9.07;;;;;;;;;;4940847;28;20057;-85
2023/07/07 03:28:57;;;;;;;13.18;10.07;;;;;;;;;;4932329;28;20133;-85
2023/07/07 03:31:24;;;;;;;11.55;9.98;;;;;;;;;;4938320;28;20042;-85
2023/07/07 03:33:51;;;;;;;12.63;10.00;;;;;;;;;;4924186;28;20043;-86
2023/07/07 03:36:19;;;;;;;17.13;11.65;;;;;;;;;;4956172;28;20038;-86
2023/07/07 03:38:45;;;;;;;14.25;11.15;;;;;;;;;;4958963;28;20137;-85
2023/07/07 03:41:11;;;;;;;15.10;11.23;;;;;;;;;;4957031;28;21796;-85
2023/07/07 03:43:37;;;;;;;13.23;11.80;;;;;;;;;;4958557;28;20065;-85
2023/07/07 03:46:04;;;;;;;15.27;13.15;;;;;;;;;;4936381;28;20031;-85
2023/07/07 03:48:30;;;;;;;12.73;11.43;;;;;;;;;;4941343;28;20038;-85
2023/07/07 03:50:57;;;;;;;14.23;11.32;;;;;;;;;;4933865;28;20505;-85
2023/07/07 03:53:23;;;;;;;15.68;12.30;;;;;;;;;;4956590;28;20121;-85
2023/07/07 03:55:49;;;;;;;16.70;13.35;;;;;;;;;;4924315;28;20092;-86
2023/07/07 03:58:15;;;;;;;12.77;11.48;;;;;;;;;;4933556;28;20042;-86
2023/07/07 04:00:41;;;;;;;14.00;12.55;;;;;;;;;;4953452;28;20046;-85
2023/07/07 04:03:07;;;;;;;15.60;12.85;;;;;;;;;;4917786;28;20048;-85
2023/07/07 04:05:33;;;;;;;13.52;11.65;;;;;;;;;;4924474;28;20220;-86
2023/07/07 04:07:59;;;;;;;14.52;12.05;;;;;;;;;;4934958;28;20438;-85
2023/07/07 04:10:25;;;;;;;14.00;12.60;;;;;;;;;;4940947;28;20141;-85
2023/07/07 04:12:52;;;;;;;13.98;12.48;;;;;;;;;;4950777;28;20259;-85
2023/07/07 04:15:18;;;;;;;13.50;11.38;;;;;;;;;;4938703;28;20904;-85
2023/07/07 04:17:44;;;;;;;13.98;12.57;;;;;;;;;;4938949;28;20488;-85
2023/07/07 04:20:11;;;;;;;14.32;12.15;;;;;;;;;;4918734;28;20390;-85
2023/07/07 04:22:37;;;;;;;15.50;12.93;;;;;;;;;;4959763;28;20053;-85
2023/07/07 04:25:09;;;;;;;13.85;12.40;;;;;;;;;;4956000;28;20053;-85
2023/07/07 04:27:35;;;;;;;13.15;11.25;;;;;;;;;;4961681;28;20046;-85
2023/07/07 04:30:02;;;;;;;13.32;11.93;;;;;;;;;;4956285;28;20046;-85
2023/07/07 04:32:28;;;;;;;13.33;11.80;;;;;;;;;;4940725;28;20101;-85
2023/07/07 04:34:54;;;;;;;14.45;12.60;;;;;;;;;;4948824;28;21465;-85
2023/07/07 04:37:20;;;;;;;15.55;12.43;;;;;;;;;;4941090;28;20096;-85
2023/07/07 04:39:46;;;;;;;18.17;13.52;;;;;;;;;;4937803;28;20493;-85
2023/07/07 04:42:12;;;;;;;15.48;13.73;;;;;;;;;;4932161;28;20141;-85
2023/07/07 04:44:38;;;;;;;15.77;13.63;;;;;;;;;;4921705;28;20062;-85
2023/07/07 04:47:05;;;;;;;14.88;13.27;;;;;;;;;;4934042;28;20046;-85
2023/07/07 04:49:31;;;;;;;16.02;14.32;;;;;;;;;;4955186;28;20061;-85
2023/07/07 04:51:57;;;;;;;16.52;13.68;;;;;;;;;;4916189;28;20185;-85
2023/07/07 04:54:23;;;;;;;22.05;15.07;;;;;;;;;;4938405;28;20424;-85
2023/07/07 04:56:49;;;;;;;13.85;12.25;;;;;;;;;;4936487;28;20378;-85
2023/07/07 04:59:16;;;;;;;16.73;13.77;;;;;;;;;;4916107;28;20073;-85
2023/07/07 05:01:44;;;;;;;16.83;13.65;;;;;;;;;;4936491;28;20125;-85
2023/07/07 05:04:10;;;;;;;15.57;13.75;;;;;;;;;;4930902;28;20374;-85
2023/07/07 05:06:37;;;;;;;17.50;14.10;;;;;;;;;;4938356;28;20042;-85
2023/07/07 05:09:04;;;;;;;16.92;12.23;;;;;;;;;;4933105;28;20065;-85
2023/07/07 05:11:30;;;;;;;18.00;14.50;;;;;;;;;;4955724;28;20047;-85
2023/07/07 05:13:56;;;;;;;13.32;11.90;;;;;;;;;;4933426;28;20042;-85
2023/07/07 05:16:23;;;;;;;16.52;14.50;;;;;;;;;;4934652;28;21511;-85
2023/07/07 05:18:49;;;;;;;16.00;13.40;;;;;;;;;;4928971;28;20034;-86
2023/07/07 05:21:16;;;;;;;13.38;11.65;;;;;;;;;;4921289;28;20085;-86
2023/07/07 05:23:42;;;;;;;14.00;12.48;;;;;;;;;;4940697;28;20363;-86
2023/07/07 05:26:08;;;;;;;16.15;14.45;;;;;;;;;;4932355;28;20042;-85
2023/07/07 05:28:34;;;;;;;14.77;11.98;;;;;;;;;;4933201;28;20058;-85
2023/07/07 05:31:01;;;;;;;17.52;13.68;;;;;;;;;;4930852;28;20397;-86
2023/07/07 05:33:28;;;;;;;16.05;12.27;;;;;;;;;;4938924;28;20046;-86
2023/07/07 05:35:54;;;;;;;14.98;12.88;;;;;;;;;;4918460;28;20046;-86
2023/07/07 05:38:22;;;;;;;16.27;13.75;;;;;;;;;;4950620;28;20396;-86
2023/07/07 05:40:48;;;;;;;17.40;12.98;;;;;;;;;;4952338;28;20113;-85
2023/07/07 05:43:15;;;;;;;16.50;12.30;;;;;;;;;;4930839;28;20059;-85
2023/07/07 05:45:41;;;;;;;14.15;12.32;;;;;;;;;;4954485;28;20772;-85
2023/07/07 05:48:07;;;;;;;15.27;13.52;;;;;;;;;;4934743;28;20156;-85
2023/07/07 05:50:33;;;;;;;18.50;13.25;;;;;;;;;;4940024;28;20367;-85
2023/07/07 05:53:01;;;;;;;17.05;12.65;;;;;;;;;;4949498;28;20041;-85
2023/07/07 05:55:34;;;;;;;13.60;11.47;;;;;;;;;;4956091;28;20042;-85
2023/07/07 05:58:03;;;;;;;14.20;11.88;;;;;;;;;;4935739;28;20485;-86
2023/07/07 06:00:30;;;;;;;14.98;11.95;;;;;;;;;;4924631;28;20509;-86
2023/07/07 06:02:56;;;;;;;13.52;12.05;;;;;;;;;;4936454;28;20045;-86
2023/07/07 06:05:22;;;;;;;13.07;10.60;;;;;;;;;;4942574;28;20040;-86
2023/07/07 06:07:48;;;;;;;12.73;10.85;;;;;;;;;;4923250;28;20046;-85
2023/07/07 06:10:14;;;;;;;12.20;10.60;;;;;;;;;;4968426;28;20371;-85
2023/07/07 06:12:40;;;;;;;12.63;9.70;;;;;;;;;;4962348;28;20513;-85
2023/07/07 06:15:06;;;;;;;11.70;10.25;;;;;;;;;;4949763;28;20038;-86
2023/07/07 06:17:33;;;;;;;12.35;9.52;;;;;;;;;;4940570;28;20038;-86
2023/07/07 06:19:59;;;;;;;13.05;10.00;;;;;;;;;;4951742;28;20125;-85
2023/07/07 06:22:25;;;;;;;12.43;10.20;;;;;;;;;;4923170;28;20042;-86
2023/07/07 06:24:54;;;;;;;10.25;9.20;;;;;;;;;;4918035;28;20046;-86
2023/07/07 06:27:20;;;;;;;11.60;9.27;;;;;;;;;;4947085;28;20168;-86
2023/07/07 06:29:47;;;;;;;14.57;9.35;;;;;;;;;;4952903;28;20568;-86
2023/07/07 06:32:13;;;;;;;10.77;8.13;;;;;;;;;;4920821;28;20641;-86
2023/07/07 06:34:39;;;;;;;12.05;8.20;;;;;;;;;;4940186;28;20401;-86
2023/07/07 06:37:05;;;;;;;12.45;8.43;;;;;;;;;;4932510;28;20038;-86
2023/07/07 06:39:31;;;;;;;10.68;8.10;;;;;;;;;;4937222;28;20042;-87
2023/07/07 06:41:59;;;;;;;10.80;7.20;;;;;;;;;;4931124;28;20129;-87
2023/07/07 06:44:25;;;;;;;9.65;7.30;;;;;;;;;;4951141;28;20483;-87
2023/07/07 06:46:52;;;;;;;9.02;7.22;;;;;;;;;;4945155;28;20050;-87
2023/07/07 06:49:18;;;;;;;10.63;6.68;;;;;;;;;;4951680;28;20468;-86
2023/07/07 06:51:44;;;;;;;9.98;6.18;;;;;;;;;;4934634;28;20077;-86
2023/07/07 06:54:10;;;;;;;9.82;7.03;;;;;;;;;;4932199;28;20389;-87
2023/07/07 06:56:36;;;;;;;10.27;6.65;;;;;;;;;;4925952;28;20041;-87
2023/07/07 06:59:03;;;;;;;9.18;6.22;;;;;;;;;;4948550;28;21252;-87
2023/07/07 07:01:29;;;;;;;6.30;5.60;;;;;;;;;;4952161;28;20181;-87
2023/07/07 07:03:58;;;;;;;7.80;5.50;;;;;;;;;;4931557;28;20124;-87
2023/07/07 07:06:24;;;;;;;7.20;5.45;;;;;;;;;;4965213;28;20046;-87
2023/07/07 07:08:50;;;;;;;6.47;5.53;;;;;;;;;;4939043;28;20053;-86
2023/07/07 07:11:17;;;;;;;7.25;5.15;;;;;;;;;;4949537;28;20053;-87
2023/07/07 07:13:43;;;;;;;8.02;5.07;;;;;;;;;;4941647;28;20500;-87
2023/07/07 07:16:09;;;;;;;7.63;4.93;;;;;;;;;;4943008;28;20034;-87
2023/07/07 07:18:35;;;;;;;7.25;5.13;;;;;;;;;;4936986;28;20628;-87
2023/07/07 07:21:01;;;;;;;8.80;4.50;;;;;;;;;;4948848;28;20042;-87
2023/07/07 07:23:27;;;;;;;7.50;4.35;;;;;;;;;;4949217;28;20038;-87
2023/07/07 07:25:53;;;;;;;5.80;4.47;;;;;;;;;;4933360;28;20508;-87
2023/07/07 07:28:19;;;;;;;8.38;3.88;;;;;;;;;;4935947;28;20108;-87
2023/07/07 07:30:45;;;;;;;5.22;3.85;;;;;;;;;;4935730;28;20046;-86
2023/07/07 07:33:15;;;;;;;8.40;3.53;;;;;;;;;;4917505;28;20571;-87
2023/07/07 07:35:41;;;;;;;4.05;3.15;;;;;;;;;;4937258;28;20038;-87
2023/07/07 07:38:08;;;;;;;6.85;3.60;;;;;;;;;;4936436;28;20509;-87
2023/07/07 07:40:34;;;;;;;6.10;3.35;;;;;;;;;;4937231;28;20084;-86
2023/07/07 07:43:00;;;;;;;5.38;3.40;;;;;;;;;;4917789;28;20038;-86
2023/07/07 07:45:27;;;;;;;6.53;3.40;;;;;;;;;;4944046;28;20057;-87
2023/07/07 07:47:53;;;;;;;5.68;3.15;;;;;;;;;;4952371;28;20068;-87
2023/07/07 07:50:19;;;;;;;4.18;2.85;;;;;;;;;;4930512;28;20039;-87
2023/07/07 07:52:45;;;;;;;4.63;3.10;;;;;;;;;;4955136;28;20057;-87
2023/07/07 07:55:11;;;;;;;5.68;3.00;;;;;;;;;;4937132;28;21954;-87
2023/07/07 07:57:37;;;;;;;4.43;2.38;;;;;;;;;;4953902;28;20042;-87
2023/07/07 08:00:04;;;;;;;4.43;2.97;;;;;;;;;;4949631;28;20073;-86
2023/07/07 08:02:30;;;;;;;4.20;2.90;;;;;;;;;;4940980;28;20105;-86
2023/07/07 08:04:56;;;;;;;3.97;2.80;;;;;;;;;;4933202;28;20050;-87
2023/07/07 08:07:23;;;;;;;4.13;2.50;;;;;;;;;;4935544;28;20492;-87
2023/07/07 08:09:49;;;;;;;4.60;2.65;;;;;;;;;;4924448;28;20133;-86
2023/07/07 08:12:15;;;;;;;5.70;3.03;;;;;;;;;;4934717;28;20049;-87
2023/07/07 08:14:41;;;;;;;4.47;2.58;;;;;;;;;;4957847;28;20361;-87
2023/07/07 08:17:08;;;;;;;4.22;2.67;;;;;;;;;;4918070;28;20093;-86
2023/07/07 08:19:34;;;;;;;8.13;3.10;;;;;;;;;;4926723;28;20080;-87
2023/07/07 08:22:01;;;;;;;4.50;2.95;;;;;;;;;;4940711;28;20046;-86
2023/07/07 08:24:27;;;;;;;4.30;2.53;;;;;;;;;;4951998;28;20367;-87
2023/07/07 08:26:53;;;;;;;5.75;2.78;;;;;;;;;;4936438;28;20444;-87
2023/07/07 08:29:20;;;;;;;3.85;2.22;;;;;;;;;;4931336;28;20038;-87
2023/07/07 08:31:47;;;;;;;4.25;2.40;;;;;;;;;;4960275;28;20124;-87
2023/07/07 08:34:13;;;;;;;4.15;2.60;;;;;;;;;;4968126;28;20065;-87
2023/07/07 08:36:39;;;;;;;4.95;2.30;;;;;;;;;;4963084;28;20784;-87
2023/07/07 08:39:09;;;;;;;3.13;2.50;;;;;;;;;;4972061;28;20042;-87
2023/07/07 08:41:35;;;;;;;3.90;2.15;;;;;;;;;;4940829;28;20043;-87
2023/07/07 08:44:01;;;;;;;4.30;2.50;;;;;;;;;;4939126;28;20085;-87
2023/07/07 08:46:42;;;;;;;2.90;2.15;;;;;;;;;;4962983;28;20038;-86
2023/07/07 08:49:10;;;;;;;4.45;2.40;;;;;;;;;;4932638;28;20042;-88
2023/07/07 08:51:43;;;;;;;3.65;2.25;;;;;;;;;;4962505;28;20046;-86
2023/07/07 08:54:27;;;;;;;4.40;2.05;;;;;;;;;;4944897;28;20096;-87
2023/07/07 08:57:12;;;;;;;2.28;2.00;;;;;;;;;;4961717;28;20042;-87
2023/07/07 08:59:58;;;;;;;3.47;2.00;;;;;;;;;;4963785;28;20120;-87
2023/07/07 09:02:43;;;;;;;2.70;2.10;;;;;;;;;;4963254;28;20445;-87
2023/07/07 09:05:20;;;;;;;2.55;1.98;;;;;;;;;;4952462;28;20437;-85
2023/07/07 09:08:12;;;;;;;3.40;2.33;;;;;;;;;;4957421;28;20112;-85
2023/07/07 09:10:57;;;;;;;4.75;2.20;;;;;;;;;;4944855;28;20575;-85
2023/07/07 09:13:28;;;;;;;3.65;1.95;;;;;;;;;;4957359;28;20102;-86
2023/07/07 09:16:22;;;;;;;4.78;2.28;;;;;;;;;;4923701;28;20489;-86
2023/07/07 09:18:53;;;;;;;3.80;2.30;;;;;;;;;;4942782;28;20149;-86
2023/07/07 09:21:26;;;;;;;3.95;2.30;;;;;;;;;;4940877;28;20038;-86
2023/07/07 09:23:53;;;;;;;5.40;2.30;;;;;;;;;;4953854;28;20048;-87
2023/07/07 09:26:42;;;;;;;3.30;2.10;;;;;;;;;;4954321;28;20048;-86
2023/07/07 09:29:14;;;;;;;5.10;2.80;;;;;;;;;;4952588;28;20046;-86
2023/07/07 09:32:02;;;;;;;2.10;1.90;;;;;;;;;;4922259;28;20107;-86
2023/07/07 09:34:29;;;;;;;4.45;2.50;;;;;;;;;;4958437;28;20400;-87
2023/07/07 09:37:14;;;;;;;3.22;2.03;;;;;;;;;;4946759;28;20041;-86
2023/07/07 09:40:01;;;;;;;3.30;2.20;;;;;;;;;;4954380;28;20042;-86
2023/07/07 09:42:47;;;;;;;3.65;2.00;;;;;;;;;;4954742;28;20406;-81
2023/07/07 09:45:33;;;;;;;2.10;1.80;;;;;;;;;;4950333;28;20644;-86
2023/07/07 09:48:02;;;;;;;2.38;2.08;;;;;;;;;;4949623;28;20573;-85
2023/07/07 09:50:47;;;;;;;4.50;2.38;;;;;;;;;;4954352;28;20370;-86
2023/07/07 09:53:32;;;;;;;4.63;2.40;;;;;;;;;;4962591;28;20533;-86
2023/07/07 09:56:01;;;;;;;3.78;2.45;;;;;;;;;;4946607;28;20050;-86
2023/07/07 09:58:39;;;;;;;3.75;2.35;;;;;;;;;;4956482;28;20046;-86
2023/07/07 10:01:08;;;;;;;3.72;2.03;;;;;;;;;;4949172;28;20493;-86
2023/07/07 10:03:54;;;;;;;3.40;1.75;;;;;;;;;;4952918;28;20449;-86
2023/07/07 10:06:33;;;;;;;4.10;1.90;;;;;;;;;;4951230;28;20124;-86
2023/07/07 10:08:59;;;;;;;3.05;2.15;;;;;;;;;;4949923;28;20042;-86
2023/07/07 10:11:28;;;;;;;2.72;2.20;;;;;;;;;;4948561;28;20034;-86
2023/07/07 10:13:56;;;;;;;2.83;1.90;;;;;;;;;;4945889;28;20121;-85
2023/07/07 10:16:32;;;;;;;4.50;1.98;;;;;;;;;;4939449;28;20038;-85
2023/07/07 10:19:02;;;;;;;3.78;1.80;;;;;;;;;;4974457;28;20046;-85
2023/07/07 10:21:28;;;;;;;3.95;1.88;;;;;;;;;;4961785;28;20062;-86
2023/07/07 10:23:54;;;;;;;3.22;2.30;;;;;;;;;;4950353;28;20644;-86
2023/07/07 10:26:20;;;;;;;4.38;2.30;;;;;;;;;;4971416;28;20065;-86
2023/07/07 10:28:47;;;;;;;3.63;2.20;;;;;;;;;;4939621;28;20046;-86
2023/07/07 10:31:15;;;;;;;4.00;2.20;;;;;;;;;;4934386;28;20047;-85
2023/07/07 10:33:41;;;;;;;4.15;2.10;;;;;;;;;;4944499;28;20035;-86
2023/07/07 10:36:28;;;;;;;3.55;2.20;;;;;;;;;;4953124;28;20539;-86
2023/07/07 10:38:55;;;;;;;4.47;2.30;;;;;;;;;;4934803;28;20046;-85
2023/07/07 10:41:21;;;;;;;4.15;2.08;;;;;;;;;;4938332;28;20046;-85
2023/07/07 10:43:47;;;;;;;4.75;1.98;;;;;;;;;;4954877;28;20054;-86
2023/07/07 10:46:14;;;;;;;5.45;2.67;;;;;;;;;;4975622;28;20112;-85
2023/07/07 10:48:44;;;;;;;3.13;2.00;;;;;;;;;;4952842;28;20050;-86
2023/07/07 10:51:29;;;;;;;3.15;2.17;;;;;;;;;;4967505;28;20042;-85
2023/07/07 10:53:55;;;;;;;3.08;2.17;;;;;;;;;;4969506;28;20129;-86
2023/07/07 10:56:28;;;;;;;3.28;2.17;;;;;;;;;;4962461;28;20046;-85
2023/07/07 10:59:13;;;;;;;2.38;2.17;;;;;;;;;;4974160;28;20056;-85
2023/07/07 11:01:46;;;;;;;6.68;2.28;;;;;;;;;;4954798;28;20042;-86
2023/07/07 11:04:15;;;;;;;3.67;2.20;;;;;;;;;;4943208;28;20910;-86
2023/07/07 11:06:52;;;;;;;2.50;2.20;;;;;;;;;;4941489;28;20038;-86
2023/07/07 11:09:37;;;;;;;3.88;2.03;;;;;;;;;;4949668;28;20120;-86
2023/07/07 11:12:13;;;;;;;3.00;2.00;;;;;;;;;;4969845;28;20378;-85
2023/07/07 11:14:45;;;;;;;3.63;2.05;;;;;;;;;;4944623;28;20042;-85
2023/07/07 11:17:11;;;;;;;3.28;1.92;;;;;;;;;;4939840;28;21623;-86
2023/07/07 11:19:41;;;;;;;2.60;2.10;;;;;;;;;;4967934;28;20046;-86
2023/07/07 11:22:16;;;;;;;3.35;1.90;;;;;;;;;;4945253;28;20053;-85
2023/07/07 11:24:47;;;;;;;2.50;1.92;;;;;;;;;;4933541;28;20050;-85
2023/07/07 11:27:19;;;;;;;3.58;2.30;;;;;;;;;;4928873;28;20396;-86
2023/07/07 11:29:48;;;;;;;3.20;2.22;;;;;;;;;;4962021;28;20038;-85
2023/07/07 11:32:18;;;;;;;5.55;2.72;;;;;;;;;;4979341;28;20393;-86
2023/07/07 11:34:44;;;;;;;2.67;2.03;;;;;;;;;;4952342;28;20069;-86
2023/07/07 11:37:28;;;;;;;3.58;2.55;;;;;;;;;;4962558;28;20042;-85
2023/07/07 11:40:01;;;;;;;2.42;2.15;;;;;;;;;;4964197;28;20065;-86
2023/07/07 11:42:27;;;;;;;3.38;2.00;;;;;;;;;;4953075;28;20046;-86
2023/07/07 11:45:00;;;;;;;2.33;1.90;;;;;;;;;;4971819;28;20054;-86
2023/07/07 11:47:41;;;;;;;2.58;2.00;;;;;;;;;;4944682;28;20074;-87
2023/07/07 11:50:26;;;;;;;2.70;2.03;;;;;;;;;;4957423;28;20053;-86
2023/07/07 11:53:04;;;;;;;3.05;1.90;;;;;;;;;;4956654;28;20050;-86
2023/07/07 11:55:49;;;;;;;4.90;2.13;;;;;;;;;;4958323;28;20477;-86
2023/07/07 11:58:35;;;;;;;3.25;2.08;;;;;;;;;;4968977;28;20230;-86
2023/07/07 12:01:06;;;;;;;2.38;2.05;;;;;;;;;;4956375;28;20508;-86
2023/07/07 12:03:36;;;;;;;2.58;2.00;;;;;;;;;;4956651;28;20448;-86
2023/07/07 12:06:05;;;;;;;3.78;2.10;;;;;;;;;;4948770;28;20042;-86
2023/07/07 12:08:36;;;;;;;2.45;1.90;;;;;;;;;;4955144;28;20038;-86
2023/07/07 12:11:02;;;;;;;2.30;2.10;;;;;;;;;;4928432;28;20128;-85
2023/07/07 12:13:48;;;;;;;2.40;2.00;;;;;;;;;;4944134;28;20082;-86
2023/07/07 12:16:15;;;;;;;3.55;2.20;;;;;;;;;;4949714;28;20074;-85
2023/07/07 12:18:44;;;;;;;2.90;2.17;;;;;;;;;;4955834;28;20081;-86
2023/07/07 12:21:14;;;;;;;3.55;2.20;;;;;;;;;;4945306;28;20034;-85
2023/07/07 12:23:41;;;;;;;5.03;2.42;;;;;;;;;;4952811;28;20045;-86
2023/07/07 12:26:43;;;;;;;3.37;2.03;;;;;;;;;;4960077;28;20229;-87
2023/07/07 12:29:09;;;;;;;3.47;2.03;;;;;;;;;;4886663;29;20308;-86
2023/07/07 12:31:35;;;;;;;2.30;2.05;;;;;;;;;;4934943;28;20146;-86
2023/07/07 12:34:18;;;;;;;2.40;2.10;;;;;;;;;;4939002;28;20072;-86
2023/07/07 12:36:45;;;;;;;3.58;2.20;;;;;;;;;;4945658;28;20042;-86
2023/07/07 12:39:11;;;;;;;4.37;1.80;;;;;;;;;;4920893;28;21917;-86
2023/07/07 12:41:37;;;;;;;2.35;2.10;;;;;;;;;;4942653;28;20488;-86
2023/07/07 12:44:04;;;;;;;3.42;2.17;;;;;;;;;;4956725;28;20065;-86
2023/07/07 12:46:31;;;;;;;4.40;2.00;;;;;;;;;;4942320;28;20050;-86
2023/07/07 12:48:58;;;;;;;2.17;1.88;;;;;;;;;;4938562;28;20053;-86
2023/07/07 12:51:24;;;;;;;3.20;1.95;;;;;;;;;;4958946;28;20509;-85
2023/07/07 12:53:52;;;;;;;3.45;1.95;;;;;;;;;;4955848;28;20590;-86
2023/07/07 12:56:19;;;;;;;3.35;2.00;;;;;;;;;;4941796;28;20038;-85
2023/07/07 12:58:46;;;;;;;2.63;2.17;;;;;;;;;;4944146;28;20073;-87
2023/07/07 13:01:15;;;;;;;2.85;2.05;;;;;;;;;;4964325;28;20080;-85
2023/07/07 13:04:00;;;;;;;6.72;2.30;;;;;;;;;;4936274;28;20057;-85
2023/07/07 13:06:26;;;;;;;3.88;2.28;;;;;;;;;;4971279;28;20112;-85
2023/07/07 13:09:02;;;;;;;4.65;2.40;;;;;;;;;;4939196;28;20401;-86
2023/07/07 13:11:32;;;;;;;2.40;2.20;;;;;;;;;;4947401;28;20038;-86
2023/07/07 13:13:58;;;;;;;3.40;1.95;;;;;;;;;;4960530;28;20497;-86
2023/07/07 13:16:25;;;;;;;2.22;2.03;;;;;;;;;;4964713;28;20034;-85
2023/07/07 13:18:51;;;;;;;2.63;1.83;;;;;;;;;;4987951;28;20581;-86
2023/07/07 13:21:17;;;;;;;1.98;1.77;;;;;;;;;;4946401;28;20048;-86
2023/07/07 13:23:48;;;;;;;6.70;2.40;;;;;;;;;;4956642;28;20042;-86
2023/07/07 13:26:26;;;;;;;2.92;1.90;;;;;;;;;;4934744;28;20508;-88
2023/07/07 13:28:56;;;;;;;2.25;1.75;;;;;;;;;;4921498;28;20092;-87
2023/07/07 13:31:22;;;;;;;2.40;2.20;;;;;;;;;;4936179;28;20038;-88
2023/07/07 13:33:48;;;;;;;2.75;2.13;;;;;;;;;;4929672;28;20046;-87
2023/07/07 13:36:14;;;;;;;2.70;2.20;;;;;;;;;;4951392;28;20038;-87
2023/07/07 13:38:42;;;;;;;2.20;2.00;;;;;;;;;;4950412;28;20034;-88
2023/07/07 13:41:08;;;;;;;1.80;1.70;;;;;;;;;;4944205;28;20050;-88
2023/07/07 13:43:39;;;;;;;2.15;1.95;;;;;;;;;;4949302;28;20074;-88
2023/07/07 13:46:24;;;;;;;2.78;2.03;;;;;;;;;;4945790;28;20113;-87
2023/07/07 13:48:53;;;;;;;2.95;2.35;;;;;;;;;;4952411;28;20184;-87
2023/07/07 13:51:21;;;;;;;2.00;1.88;;;;;;;;;;4944160;28;20038;-87
2023/07/07 13:53:47;;;;;;;2.30;2.10;;;;;;;;;;4947455;28;20105;-88
2023/07/07 13:56:13;;;;;;;3.70;2.45;;;;;;;;;;4954298;28;20508;-88
2023/07/07 13:58:43;;;;;;;2.55;2.22;;;;;;;;;;4926139;28;20485;-88
2023/07/07 14:01:15;;;;;;;3.40;2.25;;;;;;;;;;4934107;28;20122;-87
2023/07/07 14:03:44;;;;;;;3.72;2.30;;;;;;;;;;4960774;28;20480;-88
2023/07/07 14:06:11;;;;;;;3.42;2.10;;;;;;;;;;4937069;28;20803;-87
2023/07/07 14:08:37;;;;;;;2.83;1.98;;;;;;;;;;4941425;28;20081;-88
2023/07/07 14:11:05;;;;;;;2.35;1.80;;;;;;;;;;4935473;28;20050;-87
2023/07/07 14:13:32;;;;;;;2.35;1.90;;;;;;;;;;4927146;28;20074;-88
2023/07/07 14:16:25;;;;;;;2.22;1.90;;;;;;;;;;4937079;28;20220;-86
2023/07/07 14:19:01;;;;;;;2.63;2.05;;;;;;;;;;4930814;28;20054;-88
2023/07/07 14:21:27;;;;;;;2.90;2.23;;;;;;;;;;4943062;28;20050;-90
2023/07/07 14:23:53;;;;;;;2.20;2.00;;;;;;;;;;4928400;28;20054;-88
2023/07/07 14:26:22;;;;;;;2.92;1.95;;;;;;;;;;4948769;28;20133;-87
2023/07/07 14:28:49;;;;;;;2.40;2.15;;;;;;;;;;4917556;28;20042;-87
2023/07/07 14:31:15;;;;;;;2.95;2.22;;;;;;;;;;4960642;28;20055;-87
2023/07/07 14:33:42;;;;;;;2.00;1.80;;;;;;;;;;4918672;28;20042;-87
2023/07/07 14:36:16;;;;;;;3.15;1.95;;;;;;;;;;4926982;28;20038;-88
2023/07/07 14:38:45;;;;;;;1.70;1.60;;;;;;;;;;4934576;28;20057;-88
2023/07/07 14:41:12;;;;;;;4.47;2.20;;;;;;;;;;4925052;28;22024;-87
2023/07/07 14:43:39;;;;;;;3.27;2.03;;;;;;;;;;4952928;28;20076;-86
2023/07/07 14:46:06;;;;;;;2.50;2.00;;;;;;;;;;4910579;28;20060;-86
2023/07/07 14:48:59;;;;;;;2.45;2.03;;;;;;;;;;4910734;28;20050;-87
2023/07/07 14:51:26;;;;;;;2.83;2.10;;;;;;;;;;4946564;28;20054;-88